createdAt,value
2017-07-05T00:00:43.656Z,100628
2017-07-05T00:01:42.709Z,100628
2017-07-05T00:02:44.442Z,100621
2017-07-05T00:03:43.136Z,100628
2017-07-05T00:04:44.612Z,100626
2017-07-05T00:05:42.980Z,100628
2017-07-05T00:06:43.037Z,100626
2017-07-05T00:07:44.830Z,100621
2017-07-05T00:08:44.874Z,100626
2017-07-05T00:09:45.296Z,100628
2017-07-05T00:10:44.331Z,100622
2017-07-05T00:11:43.431Z,100625
2017-07-05T00:12:43.412Z,100617
2017-07-05T00:13:44.476Z,100622
2017-07-05T00:14:43.500Z,100620
2017-07-05T00:15:43.906Z,100625
2017-07-05T00:16:43.614Z,100620
2017-07-05T00:17:43.628Z,100621
2017-07-05T00:18:43.775Z,100615
2017-07-05T00:19:43.803Z,100617
2017-07-05T00:20:44.778Z,100617
2017-07-05T00:21:44.105Z,100617
2017-07-05T00:22:43.941Z,100613
2017-07-05T00:23:43.933Z,100618
2017-07-05T00:24:44.079Z,100614
2017-07-05T00:25:45.141Z,100609
2017-07-05T00:26:44.249Z,100613
2017-07-05T00:27:45.461Z,100617
2017-07-05T00:28:44.291Z,100613
2017-07-05T00:29:44.256Z,100614
2017-07-05T00:30:44.303Z,100609
2017-07-05T00:31:44.327Z,100611
2017-07-05T00:32:46.124Z,100605
2017-07-05T00:33:45.640Z,100612
2017-07-05T00:34:44.517Z,100608
2017-07-05T00:35:44.544Z,100616
2017-07-05T00:36:46.231Z,100617
2017-07-05T00:37:46.282Z,100615
2017-07-05T00:38:44.617Z,100617
2017-07-05T00:39:44.941Z,100617
2017-07-05T00:40:45.607Z,100611
2017-07-05T00:41:46.365Z,100616
2017-07-05T00:42:44.658Z,100614
2017-07-05T00:43:44.776Z,100617
2017-07-05T00:44:44.801Z,100608
2017-07-05T00:45:45.137Z,100616
2017-07-05T00:46:44.891Z,100618
2017-07-05T00:47:44.877Z,100618
2017-07-05T00:48:46.635Z,100608
2017-07-05T00:49:45.043Z,100616
2017-07-05T00:50:45.052Z,100617
2017-07-05T00:51:46.315Z,100615
2017-07-05T00:52:45.202Z,100608
2017-07-05T00:53:45.215Z,100614
2017-07-05T00:54:46.951Z,100616
2017-07-05T00:55:45.339Z,100616
2017-07-05T00:56:45.413Z,100616
2017-07-05T00:57:45.740Z,100617
2017-07-05T00:58:45.478Z,100617
2017-07-05T00:59:45.525Z,100614
2017-07-05T01:00:46.542Z,100623
2017-07-05T01:01:46.641Z,100615
2017-07-05T01:02:45.701Z,100614
2017-07-05T01:03:47.719Z,100619
2017-07-05T01:04:45.805Z,100610
2017-07-05T01:05:45.934Z,100613
2017-07-05T01:06:47.591Z,100615
2017-07-05T01:07:45.935Z,100619
2017-07-05T01:08:46.041Z,100612
2017-07-05T01:09:46.378Z,100618
2017-07-05T01:10:46.120Z,100616
2017-07-05T01:11:46.189Z,100611
2017-07-05T01:12:47.201Z,100620
2017-07-05T01:13:46.314Z,100618
2017-07-05T01:14:46.335Z,100615
2017-07-05T01:15:47.724Z,100621
2017-07-05T01:16:46.546Z,100616
2017-07-05T01:17:46.532Z,100614
2017-07-05T01:18:46.577Z,100616
2017-07-05T01:19:46.672Z,100612
2017-07-05T01:20:48.361Z,100614
2017-07-05T01:21:47.031Z,100616
2017-07-05T01:22:46.792Z,100615
2017-07-05T01:23:46.839Z,100616
2017-07-05T01:24:46.957Z,100615
2017-07-05T01:25:46.969Z,100613
2017-07-05T01:26:47.026Z,100610
2017-07-05T01:27:48.292Z,100609
2017-07-05T01:28:47.154Z,100606
2017-07-05T01:29:48.119Z,100598
2017-07-05T01:30:47.170Z,100605
2017-07-05T01:31:48.257Z,100602
2017-07-05T01:32:47.392Z,100603
2017-07-05T01:33:49.400Z,100601
2017-07-05T01:34:47.481Z,100602
2017-07-05T01:35:48.492Z,100603
2017-07-05T01:36:47.667Z,100601
2017-07-05T01:37:48.686Z,100603
2017-07-05T01:38:49.444Z,100599
2017-07-05T01:39:49.810Z,100602
2017-07-05T01:40:48.761Z,100600
2017-07-05T01:41:48.773Z,100598
2017-07-05T01:42:47.856Z,100599
2017-07-05T01:43:47.952Z,100595
2017-07-05T01:44:48.001Z,100596
2017-07-05T01:45:49.310Z,100594
2017-07-05T01:46:49.124Z,100597
2017-07-05T01:47:48.214Z,100595
2017-07-05T01:48:49.286Z,100594
2017-07-05T01:49:48.417Z,100591
2017-07-05T01:50:49.440Z,100593
2017-07-05T01:51:48.813Z,100594
2017-07-05T01:52:48.628Z,100593
2017-07-05T01:53:50.300Z,100594
2017-07-05T01:54:48.622Z,100588
2017-07-05T01:55:50.343Z,100594
2017-07-05T01:56:49.711Z,100593
2017-07-05T01:57:49.104Z,100588
2017-07-05T01:58:49.872Z,100590
2017-07-05T01:59:50.630Z,100581
2017-07-05T02:00:50.643Z,100588
2017-07-05T02:01:48.979Z,100582
2017-07-05T02:02:49.081Z,100584
2017-07-05T02:03:50.357Z,100581
2017-07-05T02:04:49.178Z,100573
2017-07-05T02:05:50.209Z,100583
2017-07-05T02:06:50.228Z,100581
2017-07-05T02:07:50.941Z,100578
2017-07-05T02:08:49.300Z,100581
2017-07-05T02:09:51.369Z,100582
2017-07-05T02:10:49.385Z,100575
2017-07-05T02:11:49.420Z,100578
2017-07-05T02:12:50.406Z,100577
2017-07-05T02:13:50.438Z,100580
2017-07-05T02:14:49.529Z,100577
2017-07-05T02:15:49.847Z,100578
2017-07-05T02:16:49.599Z,100576
2017-07-05T02:17:50.617Z,100571
2017-07-05T02:18:49.705Z,100576
2017-07-05T02:19:49.710Z,100574
2017-07-05T02:20:49.802Z,100577
2017-07-05T02:21:50.196Z,100564
2017-07-05T02:22:51.633Z,100573
2017-07-05T02:23:49.990Z,100570
2017-07-05T02:24:51.672Z,100562
2017-07-05T02:25:51.762Z,100568
2017-07-05T02:26:51.846Z,100567
2017-07-05T02:27:50.416Z,100569
2017-07-05T02:28:50.235Z,100561
2017-07-05T02:29:51.287Z,100565
2017-07-05T02:30:51.994Z,100564
2017-07-05T02:31:50.299Z,100565
2017-07-05T02:32:52.007Z,100568
2017-07-05T02:33:51.687Z,100561
2017-07-05T02:34:50.505Z,100560
2017-07-05T02:35:50.585Z,100559
2017-07-05T02:36:51.629Z,100561
2017-07-05T02:37:51.691Z,100560
2017-07-05T02:38:52.040Z,100558
2017-07-05T02:39:51.883Z,100563
2017-07-05T02:40:50.965Z,100559
2017-07-05T02:41:51.027Z,100556
2017-07-05T02:42:52.006Z,100559
2017-07-05T02:43:52.044Z,100559
2017-07-05T02:44:51.368Z,100560
2017-07-05T02:45:51.149Z,100559
2017-07-05T02:46:52.835Z,100555
2017-07-05T02:47:51.288Z,100555
2017-07-05T02:48:52.208Z,100555
2017-07-05T02:49:51.307Z,100544
2017-07-05T02:50:53.317Z,100553
2017-07-05T02:51:53.097Z,100552
2017-07-05T02:52:52.417Z,100553
2017-07-05T02:53:52.500Z,100551
2017-07-05T02:54:51.659Z,100553
2017-07-05T02:55:51.689Z,100552
2017-07-05T02:56:52.998Z,100541
2017-07-05T02:57:51.784Z,100550
2017-07-05T02:58:51.836Z,100548
2017-07-05T02:59:51.947Z,100549
2017-07-05T03:00:51.985Z,100537
2017-07-05T03:01:53.712Z,100544
2017-07-05T03:02:54.060Z,100544
2017-07-05T03:03:53.816Z,100542
2017-07-05T03:04:52.205Z,100537
2017-07-05T03:05:52.195Z,100541
2017-07-05T03:06:52.212Z,100538
2017-07-05T03:07:52.263Z,100540
2017-07-05T03:08:53.516Z,100538
2017-07-05T03:09:52.315Z,100537
2017-07-05T03:10:53.954Z,100534
2017-07-05T03:11:52.415Z,100535
2017-07-05T03:12:53.399Z,100536
2017-07-05T03:13:54.169Z,100532
2017-07-05T03:14:53.861Z,100534
2017-07-05T03:15:54.312Z,100523
2017-07-05T03:16:52.786Z,100522
2017-07-05T03:17:52.822Z,100532
2017-07-05T03:18:53.831Z,100534
2017-07-05T03:19:54.611Z,100534
2017-07-05T03:20:54.173Z,100535
2017-07-05T03:21:52.977Z,100523
2017-07-05T03:22:53.077Z,100534
2017-07-05T03:23:53.095Z,100533
2017-07-05T03:24:54.080Z,100531
2017-07-05T03:25:53.191Z,100534
2017-07-05T03:26:53.464Z,100533
2017-07-05T03:27:53.266Z,100534
2017-07-05T03:28:55.036Z,100527
2017-07-05T03:29:53.345Z,100527
2017-07-05T03:30:53.416Z,100526
2017-07-05T03:31:53.423Z,100526
2017-07-05T03:32:53.784Z,100525
2017-07-05T03:33:53.589Z,100525
2017-07-05T03:34:55.254Z,100523
2017-07-05T03:35:54.540Z,100529
2017-07-05T03:36:55.299Z,100528
2017-07-05T03:37:53.694Z,100527
2017-07-05T03:38:54.916Z,100527
2017-07-05T03:39:54.630Z,100523
2017-07-05T03:40:53.784Z,100521
2017-07-05T03:41:54.727Z,100524
2017-07-05T03:42:53.880Z,100525
2017-07-05T03:43:53.926Z,100526
2017-07-05T03:44:55.872Z,100525
2017-07-05T03:45:53.908Z,100524
2017-07-05T03:46:53.968Z,100520
2017-07-05T03:47:54.037Z,100522
2017-07-05T03:48:54.054Z,100523
2017-07-05T03:49:54.992Z,100524
2017-07-05T03:50:54.444Z,100526
2017-07-05T03:51:54.201Z,100521
2017-07-05T03:52:55.162Z,100519
2017-07-05T03:53:55.219Z,100512
2017-07-05T03:54:54.310Z,100518
2017-07-05T03:55:55.352Z,100515
2017-07-05T03:56:54.653Z,100516
2017-07-05T03:57:56.177Z,100517
2017-07-05T03:58:54.552Z,100514
2017-07-05T03:59:55.574Z,100515
2017-07-05T04:00:54.734Z,100519
2017-07-05T04:01:55.726Z,100520
2017-07-05T04:02:55.050Z,100520
2017-07-05T04:03:54.801Z,100521
2017-07-05T04:04:54.952Z,100529
2017-07-05T04:05:55.027Z,100530
2017-07-05T04:06:55.962Z,100529
2017-07-05T04:07:55.062Z,100529
2017-07-05T04:08:55.414Z,100518
2017-07-05T04:09:55.124Z,100519
2017-07-05T04:10:56.216Z,100531
2017-07-05T04:11:55.256Z,100529
2017-07-05T04:12:56.970Z,100528
2017-07-05T04:13:55.270Z,100528
2017-07-05T04:14:55.658Z,100529
2017-07-05T04:15:55.511Z,100529
2017-07-05T04:16:56.510Z,100530
2017-07-05T04:17:55.590Z,100529
2017-07-05T04:18:57.282Z,100533
2017-07-05T04:19:55.638Z,100535
2017-07-05T04:20:55.987Z,100526
2017-07-05T04:21:56.744Z,100531
2017-07-05T04:22:55.892Z,100535
2017-07-05T04:23:55.920Z,100534
2017-07-05T04:24:57.615Z,100532
2017-07-05T04:25:57.002Z,100529
2017-07-05T04:26:56.348Z,100526
2017-07-05T04:27:57.135Z,100525
2017-07-05T04:28:56.219Z,100527
2017-07-05T04:29:57.204Z,100520
2017-07-05T04:30:57.912Z,100528
2017-07-05T04:31:57.955Z,100529
2017-07-05T04:32:58.301Z,100530
2017-07-05T04:33:56.365Z,100531
2017-07-05T04:34:56.450Z,100535
2017-07-05T04:35:58.202Z,100532
2017-07-05T04:36:57.530Z,100532
2017-07-05T04:37:57.614Z,100532
2017-07-05T04:38:57.808Z,100531
2017-07-05T04:39:56.716Z,100526
2017-07-05T04:40:56.719Z,100521
2017-07-05T04:41:56.715Z,100529
2017-07-05T04:42:58.517Z,100533
2017-07-05T04:43:56.842Z,100536
2017-07-05T04:44:58.846Z,100537
2017-07-05T04:45:58.593Z,100538
2017-07-05T04:46:56.991Z,100537
2017-07-05T04:47:57.089Z,100533
2017-07-05T04:48:57.173Z,100535
2017-07-05T04:49:57.269Z,100538
2017-07-05T04:50:57.510Z,100532
2017-07-05T04:51:57.301Z,100542
2017-07-05T04:52:58.297Z,100543
2017-07-05T04:53:57.344Z,100538
2017-07-05T04:54:59.131Z,100540
2017-07-05T04:55:58.438Z,100544
2017-07-05T04:56:57.841Z,100539
2017-07-05T04:57:58.557Z,100541
2017-07-05T04:58:58.622Z,100539
2017-07-05T04:59:59.424Z,100540
2017-07-05T05:00:57.769Z,100539
2017-07-05T05:01:57.864Z,100547
2017-07-05T05:02:59.845Z,100549
2017-07-05T05:03:59.609Z,100547
2017-07-05T05:04:57.992Z,100549
2017-07-05T05:05:58.057Z,100543
2017-07-05T05:06:59.074Z,100544
2017-07-05T05:07:58.192Z,100546
2017-07-05T05:08:59.525Z,100546
2017-07-05T05:09:58.415Z,100542
2017-07-05T05:10:59.449Z,100548
2017-07-05T05:11:58.535Z,100548
2017-07-05T05:12:59.573Z,100544
2017-07-05T05:14:00.409Z,100553
2017-07-05T05:15:00.083Z,100549
2017-07-05T05:15:59.826Z,100542
2017-07-05T05:16:59.891Z,100550
2017-07-05T05:17:58.988Z,100547
2017-07-05T05:18:59.097Z,100540
2017-07-05T05:20:00.077Z,100550
2017-07-05T05:20:59.469Z,100548
2017-07-05T05:21:59.130Z,100544
2017-07-05T05:22:59.276Z,100548
2017-07-05T05:23:59.325Z,100550
2017-07-05T05:24:59.427Z,100554
2017-07-05T05:26:00.445Z,100557
2017-07-05T05:26:59.836Z,100559
2017-07-05T05:27:59.628Z,100562
2017-07-05T05:29:00.597Z,100564
2017-07-05T05:29:59.742Z,100558
2017-07-05T05:30:59.724Z,100563
2017-07-05T05:32:01.501Z,100569
2017-07-05T05:33:01.782Z,100556
2017-07-05T05:34:01.577Z,100564
2017-07-05T05:34:59.969Z,100565
2017-07-05T05:35:59.955Z,100566
2017-07-05T05:37:01.758Z,100567
2017-07-05T05:38:00.194Z,100564
2017-07-05T05:39:02.150Z,100571
2017-07-05T05:40:02.014Z,100562
2017-07-05T05:41:00.375Z,100552
2017-07-05T05:42:01.335Z,100566
2017-07-05T05:43:02.077Z,100561
2017-07-05T05:44:01.374Z,100558
2017-07-05T05:45:01.685Z,100562
2017-07-05T05:46:01.435Z,100561
2017-07-05T05:47:01.474Z,100560
2017-07-05T05:48:01.576Z,100564
2017-07-05T05:49:00.631Z,100562
2017-07-05T05:50:01.612Z,100566
2017-07-05T05:51:01.898Z,100563
2017-07-05T05:52:00.733Z,100555
2017-07-05T05:53:00.681Z,100568
2017-07-05T05:54:02.396Z,100565
2017-07-05T05:55:02.504Z,100569
2017-07-05T05:56:00.857Z,100577
2017-07-05T05:57:02.658Z,100564
2017-07-05T05:58:01.031Z,100577
2017-07-05T05:59:02.717Z,100574
2017-07-05T06:00:02.830Z,100572
2017-07-05T06:01:01.132Z,100575
2017-07-05T06:02:02.197Z,100574
2017-07-05T06:03:01.522Z,100571
2017-07-05T06:04:02.955Z,100574
2017-07-05T06:05:02.324Z,100574
2017-07-05T06:06:02.472Z,100573
2017-07-05T06:07:02.487Z,100573
2017-07-05T06:08:02.499Z,100577
2017-07-05T06:09:02.574Z,100578
2017-07-05T06:10:02.670Z,100580
2017-07-05T06:11:02.779Z,100578
2017-07-05T06:12:02.729Z,100571
2017-07-05T06:13:03.499Z,100583
2017-07-05T06:14:03.855Z,100581
2017-07-05T06:15:03.975Z,100584
2017-07-05T06:16:03.030Z,100576
2017-07-05T06:17:04.328Z,100582
2017-07-05T06:18:02.743Z,100581
2017-07-05T06:19:04.684Z,100582
2017-07-05T06:20:02.370Z,100581
2017-07-05T06:21:06.943Z,100581
2017-07-05T06:22:04.086Z,100584
2017-07-05T06:23:03.418Z,100582
2017-07-05T06:24:03.531Z,100570
2017-07-05T06:25:02.571Z,100582
2017-07-05T06:26:02.553Z,100582
2017-07-05T06:27:05.978Z,100581
2017-07-05T06:28:03.652Z,100586
2017-07-05T06:29:02.766Z,100584
2017-07-05T06:30:04.430Z,100585
2017-07-05T06:31:05.202Z,100583
2017-07-05T06:32:02.771Z,100587
2017-07-05T06:33:02.893Z,100586
2017-07-05T06:34:05.370Z,100589
2017-07-05T06:35:03.985Z,100587
2017-07-05T06:36:03.609Z,100592
2017-07-05T06:37:05.383Z,100581
2017-07-05T06:38:04.499Z,100586
2017-07-05T06:39:03.130Z,100590
2017-07-05T06:40:06.710Z,100593
2017-07-05T06:41:04.989Z,100586
2017-07-05T06:42:04.616Z,100587
2017-07-05T06:43:04.400Z,100588
2017-07-05T06:44:04.441Z,100591
2017-07-05T06:45:03.550Z,100590
2017-07-05T06:46:04.661Z,100586
2017-07-05T06:47:03.612Z,100590
2017-07-05T06:48:04.267Z,100592
2017-07-05T06:49:04.119Z,100592
2017-07-05T06:50:03.863Z,100600
2017-07-05T06:51:04.862Z,100598
2017-07-05T06:52:05.710Z,100592
2017-07-05T06:53:04.521Z,100590
2017-07-05T06:54:04.056Z,100598
2017-07-05T06:55:04.807Z,100598
2017-07-05T06:56:04.191Z,100592
2017-07-05T06:57:05.869Z,100597
2017-07-05T06:58:06.617Z,100596
2017-07-05T06:59:06.068Z,100594
2017-07-05T07:00:04.462Z,100596
2017-07-05T07:01:04.505Z,100598
2017-07-05T07:02:06.850Z,100595
2017-07-05T07:03:06.185Z,100587
2017-07-05T07:04:05.313Z,100595
2017-07-05T07:05:09.521Z,100591
2017-07-05T07:06:06.627Z,100596
2017-07-05T07:07:07.875Z,100596
2017-07-05T07:08:06.452Z,100595
2017-07-05T07:09:07.710Z,100596
2017-07-05T07:10:07.716Z,100598
2017-07-05T07:11:06.067Z,100590
2017-07-05T07:12:08.397Z,100594
2017-07-05T07:13:05.777Z,100590
2017-07-05T07:14:06.314Z,100594
2017-07-05T07:15:05.150Z,100596
2017-07-05T07:16:06.919Z,100593
2017-07-05T07:17:05.413Z,100592
2017-07-05T07:18:06.702Z,100593
2017-07-05T07:19:05.491Z,100591
2017-07-05T07:20:05.494Z,100580
2017-07-05T07:21:08.302Z,100596
2017-07-05T07:22:05.531Z,100591
2017-07-05T07:23:05.555Z,100585
2017-07-05T07:24:07.306Z,100590
2017-07-05T07:25:05.724Z,100584
2017-07-05T07:26:05.658Z,100589
2017-07-05T07:27:06.451Z,100592
2017-07-05T07:28:07.726Z,100589
2017-07-05T07:29:07.618Z,100591
2017-07-05T07:30:07.635Z,100587
2017-07-05T07:31:08.165Z,100585
2017-07-05T07:32:06.038Z,100512
2017-07-05T07:33:07.017Z,100591
2017-07-05T07:34:07.793Z,100590
2017-07-05T07:35:07.555Z,100580
2017-07-05T07:36:06.207Z,100587
2017-07-05T07:37:06.282Z,100587
2017-07-05T07:38:07.344Z,100588
2017-07-05T07:39:08.136Z,100590
2017-07-05T07:40:08.188Z,100585
2017-07-05T07:41:07.478Z,100589
2017-07-05T07:42:08.321Z,100591
2017-07-05T07:43:07.580Z,100596
2017-07-05T07:44:06.734Z,100593
2017-07-05T07:45:06.772Z,100594
2017-07-05T07:46:07.743Z,100589
2017-07-05T07:47:06.795Z,100594
2017-07-05T07:48:08.579Z,100598
2017-07-05T07:49:08.566Z,100597
2017-07-05T07:50:07.186Z,100601
2017-07-05T07:51:07.912Z,100601
2017-07-05T07:52:07.983Z,100597
2017-07-05T07:53:07.102Z,100588
2017-07-05T07:54:07.061Z,100596
2017-07-05T07:55:08.851Z,100597
2017-07-05T07:56:08.951Z,100591
2017-07-05T07:57:09.046Z,100594
2017-07-05T07:58:08.018Z,100592
2017-07-05T07:59:09.682Z,100593
2017-07-05T08:00:07.466Z,100595
2017-07-05T08:01:07.462Z,100593
2017-07-05T08:02:08.467Z,100597
2017-07-05T08:03:11.024Z,100597
2017-07-05T08:04:08.630Z,100591
2017-07-05T08:05:12.552Z,100593
2017-07-05T08:06:09.950Z,100595
2017-07-05T08:07:09.576Z,100596
2017-07-05T08:08:11.343Z,100595
2017-07-05T08:09:10.062Z,100594
2017-07-05T08:10:09.058Z,100590
2017-07-05T08:11:09.779Z,100596
2017-07-05T08:12:08.504Z,100597
2017-07-05T08:13:09.937Z,100589
2017-07-05T08:14:10.962Z,100594
2017-07-05T08:15:10.252Z,100604
2017-07-05T08:16:09.987Z,100595
2017-07-05T08:17:10.086Z,100593
2017-07-05T08:18:08.551Z,100590
2017-07-05T08:19:10.365Z,100589
2017-07-05T08:20:14.148Z,100593
2017-07-05T08:21:10.419Z,100596
2017-07-05T08:22:08.863Z,100590
2017-07-05T08:23:10.323Z,100601
2017-07-05T08:24:10.226Z,100603
2017-07-05T08:25:09.029Z,100601
2017-07-05T08:26:10.783Z,100605
2017-07-05T08:27:10.767Z,100605
2017-07-05T08:28:11.497Z,100605
2017-07-05T08:29:10.116Z,100604
2017-07-05T08:30:10.621Z,100605
2017-07-05T08:31:10.051Z,100606
2017-07-05T08:32:09.955Z,100609
2017-07-05T08:33:11.089Z,100600
2017-07-05T08:34:09.728Z,100599
2017-07-05T08:35:12.131Z,100600
2017-07-05T08:36:09.695Z,100607
2017-07-05T08:37:10.403Z,100608
2017-07-05T08:38:12.633Z,100610
2017-07-05T08:39:11.236Z,100605
2017-07-05T08:40:11.236Z,100606
2017-07-05T08:41:10.755Z,100608
2017-07-05T08:42:11.583Z,100606
2017-07-05T08:43:11.548Z,100603
2017-07-05T08:44:13.555Z,100601
2017-07-05T08:45:09.931Z,100604
2017-07-05T08:46:09.986Z,100607
2017-07-05T08:47:10.976Z,100609
2017-07-05T08:48:12.256Z,100611
2017-07-05T08:49:10.175Z,100607
2017-07-05T08:50:10.094Z,100606
2017-07-05T08:51:11.159Z,100611
2017-07-05T08:52:10.963Z,100611
2017-07-05T08:53:12.795Z,100609
2017-07-05T08:54:13.275Z,100611
2017-07-05T08:55:10.246Z,100607
2017-07-05T08:56:11.874Z,100601
2017-07-05T08:57:10.300Z,100609
2017-07-05T08:58:13.589Z,100610
2017-07-05T08:59:11.072Z,100602
2017-07-05T09:00:12.044Z,100624
2017-07-05T09:01:12.092Z,100611
2017-07-05T09:02:15.004Z,100613
2017-07-05T09:03:10.583Z,100612
2017-07-05T09:04:13.031Z,100605
2017-07-05T09:05:10.802Z,100613
2017-07-05T09:06:12.446Z,100613
2017-07-05T09:07:14.079Z,100614
2017-07-05T09:08:10.889Z,100611
2017-07-05T09:09:12.377Z,100611
2017-07-05T09:10:11.502Z,100601
2017-07-05T09:11:14.279Z,100606
2017-07-05T09:12:11.721Z,100603
2017-07-05T09:13:13.316Z,100610
2017-07-05T09:14:12.535Z,100603
2017-07-05T09:15:13.349Z,100609
2017-07-05T09:16:13.765Z,100604
2017-07-05T09:17:12.942Z,100612
2017-07-05T09:18:11.310Z,100606
2017-07-05T09:19:13.286Z,100615
2017-07-05T09:20:11.571Z,100610
2017-07-05T09:21:11.730Z,100601
2017-07-05T09:22:11.438Z,100613
2017-07-05T09:23:13.244Z,100614
2017-07-05T09:24:13.270Z,100613
2017-07-05T09:25:14.056Z,100608
2017-07-05T09:26:11.693Z,100613
2017-07-05T09:27:13.746Z,100616
2017-07-05T09:28:15.589Z,100616
2017-07-05T09:29:12.768Z,100616
2017-07-05T09:30:11.990Z,100617
2017-07-05T09:31:12.113Z,100617
2017-07-05T09:32:13.245Z,100612
2017-07-05T09:33:13.877Z,100621
2017-07-05T09:34:12.292Z,100619
2017-07-05T09:35:15.081Z,100621
2017-07-05T09:36:13.869Z,100624
2017-07-05T09:37:13.492Z,100614
2017-07-05T09:38:14.050Z,100619
2017-07-05T09:39:15.725Z,100621
2017-07-05T09:40:14.828Z,100618
2017-07-05T09:41:14.123Z,100619
2017-07-05T09:42:13.310Z,100619
2017-07-05T09:43:12.740Z,100621
2017-07-05T09:44:13.731Z,100611
2017-07-05T09:45:13.992Z,100622
2017-07-05T09:46:13.785Z,100619
2017-07-05T09:47:14.513Z,100621
2017-07-05T09:48:14.728Z,100611
2017-07-05T09:49:14.077Z,100615
2017-07-05T09:50:15.579Z,100616
2017-07-05T09:51:13.851Z,100622
2017-07-05T09:52:15.148Z,100607
2017-07-05T09:53:16.002Z,100618
2017-07-05T09:54:13.028Z,100614
2017-07-05T09:55:15.408Z,100616
2017-07-05T09:56:13.074Z,100614
2017-07-05T09:57:15.131Z,100617
2017-07-05T09:58:15.991Z,100617
2017-07-05T09:59:13.824Z,100614
2017-07-05T10:00:14.024Z,100615
2017-07-05T10:01:15.369Z,100615
2017-07-05T10:02:14.762Z,100607
2017-07-05T10:03:16.490Z,100610
2017-07-05T10:04:14.399Z,100609
2017-07-05T10:05:16.069Z,100609
2017-07-05T10:06:15.455Z,100608
2017-07-05T10:07:13.854Z,100608
2017-07-05T10:08:13.919Z,100611
2017-07-05T10:09:15.657Z,100612
2017-07-05T10:10:16.308Z,100611
2017-07-05T10:11:15.358Z,100612
2017-07-05T10:12:16.492Z,100609
2017-07-05T10:13:14.858Z,100607
2017-07-05T10:14:16.568Z,100604
2017-07-05T10:15:14.168Z,100598
2017-07-05T10:16:15.935Z,100603
2017-07-05T10:17:15.913Z,100602
2017-07-05T10:18:14.341Z,100596
2017-07-05T10:19:14.399Z,100605
2017-07-05T10:20:16.116Z,100604
2017-07-05T10:21:16.181Z,100602
2017-07-05T10:22:16.185Z,100604
2017-07-05T10:23:17.018Z,100601
2017-07-05T10:24:15.976Z,100602
2017-07-05T10:25:17.036Z,100602
2017-07-05T10:26:14.878Z,100590
2017-07-05T10:27:18.203Z,100598
2017-07-05T10:28:15.943Z,100604
2017-07-05T10:29:15.056Z,100604
2017-07-05T10:30:16.287Z,100595
2017-07-05T10:31:15.634Z,100602
2017-07-05T10:32:16.147Z,100601
2017-07-05T10:33:17.759Z,100604
2017-07-05T10:34:17.628Z,100592
2017-07-05T10:35:15.372Z,100599
2017-07-05T10:36:15.451Z,100597
2017-07-05T10:37:15.441Z,100595
2017-07-05T10:38:17.403Z,100592
2017-07-05T10:39:19.348Z,100599
2017-07-05T10:40:17.277Z,100597
2017-07-05T10:41:17.768Z,100600
2017-07-05T10:42:16.671Z,100596
2017-07-05T10:43:16.711Z,100595
2017-07-05T10:44:18.175Z,100597
2017-07-05T10:45:15.891Z,100595
2017-07-05T10:46:16.717Z,100597
2017-07-05T10:47:17.686Z,100594
2017-07-05T10:48:16.704Z,100587
2017-07-05T10:49:16.998Z,100583
2017-07-05T10:50:18.514Z,100592
2017-07-05T10:51:18.441Z,100592
2017-07-05T10:52:16.234Z,100589
2017-07-05T10:53:16.900Z,100580
2017-07-05T10:54:16.387Z,100587
2017-07-05T10:55:18.655Z,100588
2017-07-05T10:56:16.543Z,100581
2017-07-05T10:57:16.527Z,100576
2017-07-05T10:58:18.784Z,100581
2017-07-05T10:59:18.861Z,100588
2017-07-05T11:00:17.844Z,100587
2017-07-05T11:01:17.231Z,100580
2017-07-05T11:02:17.703Z,100586
2017-07-05T11:03:19.026Z,100590
2017-07-05T11:04:18.442Z,100578
2017-07-05T11:05:17.888Z,100587
2017-07-05T11:06:18.555Z,100579
2017-07-05T11:07:17.553Z,100579
2017-07-05T11:08:18.876Z,100576
2017-07-05T11:09:17.977Z,100575
2017-07-05T11:10:17.748Z,100576
2017-07-05T11:11:18.827Z,100571
2017-07-05T11:12:18.108Z,100567
2017-07-05T11:13:18.096Z,100566
2017-07-05T11:14:17.263Z,100564
2017-07-05T11:15:20.107Z,100571
2017-07-05T11:16:18.388Z,100576
2017-07-05T11:17:18.161Z,100575
2017-07-05T11:18:19.187Z,100568
2017-07-05T11:19:17.615Z,100565
2017-07-05T11:20:17.580Z,100574
2017-07-05T11:21:19.304Z,100566
2017-07-05T11:22:17.665Z,100571
2017-07-05T11:23:17.691Z,100562
2017-07-05T11:24:18.436Z,100568
2017-07-05T11:25:19.515Z,100563
2017-07-05T11:26:17.866Z,100574
2017-07-05T11:27:18.497Z,100560
2017-07-05T11:28:17.862Z,100565
2017-07-05T11:29:19.714Z,100564
2017-07-05T11:30:19.750Z,100564
2017-07-05T11:31:20.492Z,100566
2017-07-05T11:32:19.114Z,100567
2017-07-05T11:33:18.118Z,100565
2017-07-05T11:34:18.135Z,100555
2017-07-05T11:35:19.799Z,100563
2017-07-05T11:36:18.151Z,100553
2017-07-05T11:37:19.873Z,100563
2017-07-05T11:38:18.181Z,100563
2017-07-05T11:39:19.998Z,100563
2017-07-05T11:40:19.296Z,100564
2017-07-05T11:41:19.117Z,100562
2017-07-05T11:42:18.469Z,100558
2017-07-05T11:43:20.700Z,100563
2017-07-05T11:44:20.743Z,100558
2017-07-05T11:45:20.713Z,100561
2017-07-05T11:46:19.872Z,100558
2017-07-05T11:47:19.549Z,100553
2017-07-05T11:48:19.193Z,100552
2017-07-05T11:49:19.264Z,100544
2017-07-05T11:50:18.774Z,100551
2017-07-05T11:51:20.080Z,100554
2017-07-05T11:52:20.007Z,100550
2017-07-05T11:53:20.486Z,100545
2017-07-05T11:54:18.950Z,100553
2017-07-05T11:55:18.998Z,100554
2017-07-05T11:56:20.790Z,100551
2017-07-05T11:57:20.178Z,100549
2017-07-05T11:58:19.254Z,100539
2017-07-05T11:59:20.993Z,100546
2017-07-05T12:00:22.040Z,100542
2017-07-05T12:01:23.668Z,100535
2017-07-05T12:02:19.557Z,100543
2017-07-05T12:03:19.615Z,100547
2017-07-05T12:04:21.230Z,100540
2017-07-05T12:05:21.216Z,100548
2017-07-05T12:06:19.628Z,100545
2017-07-05T12:07:19.715Z,100541
2017-07-05T12:08:20.736Z,100547
2017-07-05T12:09:21.480Z,100549
2017-07-05T12:10:22.721Z,100551
2017-07-05T12:11:21.508Z,100554
2017-07-05T12:12:22.239Z,100545
2017-07-05T12:13:20.856Z,100549
2017-07-05T12:14:22.384Z,100549
2017-07-05T12:15:20.967Z,100550
2017-07-05T12:16:20.111Z,100547
2017-07-05T12:17:21.840Z,100545
2017-07-05T12:18:20.169Z,100545
2017-07-05T12:19:21.757Z,100543
2017-07-05T12:20:20.241Z,100544
2017-07-05T12:21:21.875Z,100536
2017-07-05T12:22:20.311Z,100545
2017-07-05T12:23:22.041Z,100544
2017-07-05T12:24:21.992Z,100544
2017-07-05T12:25:22.088Z,100545
2017-07-05T12:26:21.372Z,100538
2017-07-05T12:27:21.405Z,100541
2017-07-05T12:28:21.545Z,100534
2017-07-05T12:29:20.618Z,100537